sensor_id;sensor_type;location;lat;lon;timestamp;temperature;humidity
16441;DHT22;8330;-33.858;151.184;2022-09-09T00:00:47;16.90;99.90
16441;DHT22;8330;-33.858;151.184;2022-09-09T00:03:22;16.90;99.90
16441;DHT22;8330;-33.858;151.184;2022-09-09T00:06:02;16.90;99.90
16441;DHT22;8330;-33.858;151.184;2022-09-09T00:08:45;16.90;99.90
16441;DHT22;8330;-33.858;151.184;2022-09-09T00:11:28;16.90;99.90
16441;DHT22;8330;-33.858;151.184;2022-09-09T00:14:12;17.00;99.90
16441;DHT22;8330;-33.858;151.184;2022-09-09T00:16:50;17.00;99.90
16441;DHT22;8330;-33.858;151.184;2022-09-09T00:19:27;17.00;99.90
16441;DHT22;8330;-33.858;151.184;2022-09-09T00:22:13;17.00;99.90
16441;DHT22;8330;-33.858;151.184;2022-09-09T00:24:46;17.00;99.90
16441;DHT22;8330;-33.858;151.184;2022-09-09T00:27:25;17.00;99.90
16441;DHT22;8330;-33.858;151.184;2022-09-09T00:30:01;17.10;99.90
16441;DHT22;8330;-33.858;151.184;2022-09-09T00:32:33;17.10;99.90
16441;DHT22;8330;-33.858;151.184;2022-09-09T00:35:11;17.10;99.90
16441;DHT22;8330;-33.858;151.184;2022-09-09T00:37:46;17.20;99.90
16441;DHT22;8330;-33.858;151.184;2022-09-09T00:40:30;17.20;99.90
16441;DHT22;8330;-33.858;151.184;2022-09-09T00:43:21;17.30;99.90
16441;DHT22;8330;-33.858;151.184;2022-09-09T00:46:11;17.40;99.90
16441;DHT22;8330;-33.858;151.184;2022-09-09T00:48:50;17.50;99.90
16441;DHT22;8330;-33.858;151.184;2022-09-09T00:51:30;17.50;99.90
16441;DHT22;8330;-33.858;151.184;2022-09-09T00:54:28;17.50;99.90
16441;DHT22;8330;-33.858;151.184;2022-09-09T00:57:12;17.60;99.90
16441;DHT22;8330;-33.858;151.184;2022-09-09T00:59:50;17.60;99.90
16441;DHT22;8330;-33.858;151.184;2022-09-09T01:02:28;17.60;99.90
16441;DHT22;8330;-33.858;151.184;2022-09-09T01:05:05;17.60;99.90
16441;DHT22;8330;-33.858;151.184;2022-09-09T01:07:37;17.50;99.90
16441;DHT22;8330;-33.858;151.184;2022-09-09T01:10:14;17.60;99.90
16441;DHT22;8330;-33.858;151.184;2022-09-09T01:12:50;17.60;99.90
16441;DHT22;8330;-33.858;151.184;2022-09-09T01:15:26;17.60;99.90
16441;DHT22;8330;-33.858;151.184;2022-09-09T01:18:02;17.70;99.90
16441;DHT22;8330;-33.858;151.184;2022-09-09T01:20:43;17.70;99.90
16441;DHT22;8330;-33.858;151.184;2022-09-09T01:23:32;17.80;99.90
16441;DHT22;8330;-33.858;151.184;2022-09-09T01:26:18;17.90;99.90
16441;DHT22;8330;-33.858;151.184;2022-09-09T01:28:52;17.90;99.90
16441;DHT22;8330;-33.858;151.184;2022-09-09T01:31:27;18.10;99.90
16441;DHT22;8330;-33.858;151.184;2022-09-09T01:34:00;18.20;99.90
16441;DHT22;8330;-33.858;151.184;2022-09-09T01:36:37;18.20;99.90
16441;DHT22;8330;-33.858;151.184;2022-09-09T01:39:13;18.30;99.90
16441;DHT22;8330;-33.858;151.184;2022-09-09T01:41:46;18.40;99.90
16441;DHT22;8330;-33.858;151.184;2022-09-09T01:44:18;18.50;99.90
16441;DHT22;8330;-33.858;151.184;2022-09-09T01:46:49;18.60;99.90
16441;DHT22;8330;-33.858;151.184;2022-09-09T01:49:20;18.60;99.90
16441;DHT22;8330;-33.858;151.184;2022-09-09T01:51:53;18.70;99.90
16441;DHT22;8330;-33.858;151.184;2022-09-09T01:54:26;18.70;99.90
16441;DHT22;8330;-33.858;151.184;2022-09-09T01:57:06;18.70;99.90
16441;DHT22;8330;-33.858;151.184;2022-09-09T01:59:59;18.80;99.90
16441;DHT22;8330;-33.858;151.184;2022-09-09T02:02:35;18.90;99.90
16441;DHT22;8330;-33.858;151.184;2022-09-09T02:05:21;19.10;99.90
16441;DHT22;8330;-33.858;151.184;2022-09-09T02:08:05;19.20;99.90
16441;DHT22;8330;-33.858;151.184;2022-09-09T02:10:41;19.40;99.90
16441;DHT22;8330;-33.858;151.184;2022-09-09T02:13:16;19.50;99.90
16441;DHT22;8330;-33.858;151.184;2022-09-09T02:15:55;19.60;99.90
16441;DHT22;8330;-33.858;151.184;2022-09-09T02:18:27;19.70;99.90
16441;DHT22;8330;-33.858;151.184;2022-09-09T02:21:00;20.00;99.90
16441;DHT22;8330;-33.858;151.184;2022-09-09T02:23:31;20.20;99.90
16441;DHT22;8330;-33.858;151.184;2022-09-09T02:26:03;20.30;99.90
16441;DHT22;8330;-33.858;151.184;2022-09-09T02:28:38;20.30;99.90
16441;DHT22;8330;-33.858;151.184;2022-09-09T02:31:10;20.40;99.90
16441;DHT22;8330;-33.858;151.184;2022-09-09T02:33:42;20.40;99.90
16441;DHT22;8330;-33.858;151.184;2022-09-09T02:36:16;20.60;99.90
16441;DHT22;8330;-33.858;151.184;2022-09-09T02:38:48;20.70;99.90
16441;DHT22;8330;-33.858;151.184;2022-09-09T02:41:24;20.60;99.90
16441;DHT22;8330;-33.858;151.184;2022-09-09T02:43:58;20.70;99.90
16441;DHT22;8330;-33.858;151.184;2022-09-09T02:46:45;20.60;99.90
16441;DHT22;8330;-33.858;151.184;2022-09-09T02:49:22;20.50;99.90
16441;DHT22;8330;-33.858;151.184;2022-09-09T02:52:00;20.60;99.90
16441;DHT22;8330;-33.858;151.184;2022-09-09T02:54:34;20.70;99.90
16441;DHT22;8330;-33.858;151.184;2022-09-09T02:57:10;20.70;99.90
16441;DHT22;8330;-33.858;151.184;2022-09-09T02:59:44;20.70;99.90
16441;DHT22;8330;-33.858;151.184;2022-09-09T03:02:15;20.80;99.90
16441;DHT22;8330;-33.858;151.184;2022-09-09T03:04:46;20.90;99.90
16441;DHT22;8330;-33.858;151.184;2022-09-09T03:07:19;20.90;99.90
16441;DHT22;8330;-33.858;151.184;2022-09-09T03:09:50;20.90;99.90
16441;DHT22;8330;-33.858;151.184;2022-09-09T03:12:22;21.00;99.90
16441;DHT22;8330;-33.858;151.184;2022-09-09T03:14:55;20.90;99.90
16441;DHT22;8330;-33.858;151.184;2022-09-09T03:17:26;20.90;99.90
16441;DHT22;8330;-33.858;151.184;2022-09-09T03:19:58;21.00;99.90
16441;DHT22;8330;-33.858;151.184;2022-09-09T03:22:29;21.10;99.90
16441;DHT22;8330;-33.858;151.184;2022-09-09T03:25:00;21.10;99.90
16441;DHT22;8330;-33.858;151.184;2022-09-09T03:27:31;21.20;99.90
16441;DHT22;8330;-33.858;151.184;2022-09-09T03:30:04;21.20;99.90
16441;DHT22;8330;-33.858;151.184;2022-09-09T03:32:35;21.20;99.90
16441;DHT22;8330;-33.858;151.184;2022-09-09T03:35:08;21.10;99.90
16441;DHT22;8330;-33.858;151.184;2022-09-09T03:37:39;21.10;99.90
16441;DHT22;8330;-33.858;151.184;2022-09-09T03:40:11;21.10;99.90
16441;DHT22;8330;-33.858;151.184;2022-09-09T03:42:42;21.10;99.90
16441;DHT22;8330;-33.858;151.184;2022-09-09T03:45:14;21.00;99.90
16441;DHT22;8330;-33.858;151.184;2022-09-09T03:47:45;21.00;99.90
16441;DHT22;8330;-33.858;151.184;2022-09-09T03:50:16;21.20;99.90
16441;DHT22;8330;-33.858;151.184;2022-09-09T03:52:47;21.20;99.90
16441;DHT22;8330;-33.858;151.184;2022-09-09T03:55:18;21.20;99.90
16441;DHT22;8330;-33.858;151.184;2022-09-09T03:57:49;21.20;99.90
16441;DHT22;8330;-33.858;151.184;2022-09-09T04:00:22;21.30;99.90
16441;DHT22;8330;-33.858;151.184;2022-09-09T04:02:54;21.30;99.90
16441;DHT22;8330;-33.858;151.184;2022-09-09T04:05:25;21.30;99.90
16441;DHT22;8330;-33.858;151.184;2022-09-09T04:07:56;21.30;99.90
16441;DHT22;8330;-33.858;151.184;2022-09-09T04:10:27;21.50;99.90
16441;DHT22;8330;-33.858;151.184;2022-09-09T04:12:58;21.50;99.90
16441;DHT22;8330;-33.858;151.184;2022-09-09T04:15:31;21.50;99.90
16441;DHT22;8330;-33.858;151.184;2022-09-09T04:18:04;21.50;99.90
16441;DHT22;8330;-33.858;151.184;2022-09-09T04:20:35;21.40;99.90
16441;DHT22;8330;-33.858;151.184;2022-09-09T04:23:06;21.40;99.90
16441;DHT22;8330;-33.858;151.184;2022-09-09T04:25:36;21.50;99.90
16441;DHT22;8330;-33.858;151.184;2022-09-09T04:28:08;21.50;99.90
16441;DHT22;8330;-33.858;151.184;2022-09-09T04:30:40;21.40;99.90
16441;DHT22;8330;-33.858;151.184;2022-09-09T04:33:11;21.50;99.90
16441;DHT22;8330;-33.858;151.184;2022-09-09T04:35:46;21.60;99.90
16441;DHT22;8330;-33.858;151.184;2022-09-09T04:38:17;21.50;99.90
16441;DHT22;8330;-33.858;151.184;2022-09-09T04:40:48;21.40;99.90
16441;DHT22;8330;-33.858;151.184;2022-09-09T04:43:19;21.50;99.90
16441;DHT22;8330;-33.858;151.184;2022-09-09T04:45:52;21.50;99.90
16441;DHT22;8330;-33.858;151.184;2022-09-09T04:48:23;21.60;99.90
16441;DHT22;8330;-33.858;151.184;2022-09-09T04:50:59;21.60;99.90
16441;DHT22;8330;-33.858;151.184;2022-09-09T04:53:30;21.50;99.90
16441;DHT22;8330;-33.858;151.184;2022-09-09T04:56:05;21.40;99.90
16441;DHT22;8330;-33.858;151.184;2022-09-09T04:58:39;21.40;99.90
16441;DHT22;8330;-33.858;151.184;2022-09-09T05:01:13;21.10;99.90
16441;DHT22;8330;-33.858;151.184;2022-09-09T05:03:45;21.10;99.90
16441;DHT22;8330;-33.858;151.184;2022-09-09T05:06:19;21.10;99.90
16441;DHT22;8330;-33.858;151.184;2022-09-09T05:08:50;21.20;99.90
16441;DHT22;8330;-33.858;151.184;2022-09-09T05:11:21;21.30;99.90
16441;DHT22;8330;-33.858;151.184;2022-09-09T05:13:53;21.30;99.90
16441;DHT22;8330;-33.858;151.184;2022-09-09T05:16:26;21.30;99.90
16441;DHT22;8330;-33.858;151.184;2022-09-09T05:18:57;21.30;99.90
16441;DHT22;8330;-33.858;151.184;2022-09-09T05:21:31;21.30;99.90
16441;DHT22;8330;-33.858;151.184;2022-09-09T05:24:02;21.30;99.90
16441;DHT22;8330;-33.858;151.184;2022-09-09T05:26:33;21.40;99.90
16441;DHT22;8330;-33.858;151.184;2022-09-09T05:29:03;21.30;99.90
16441;DHT22;8330;-33.858;151.184;2022-09-09T05:31:36;21.30;99.90
16441;DHT22;8330;-33.858;151.184;2022-09-09T05:34:07;21.30;99.90
16441;DHT22;8330;-33.858;151.184;2022-09-09T05:36:37;21.30;99.90
16441;DHT22;8330;-33.858;151.184;2022-09-09T05:39:08;21.40;99.90
16441;DHT22;8330;-33.858;151.184;2022-09-09T05:41:39;21.40;99.90
16441;DHT22;8330;-33.858;151.184;2022-09-09T05:44:12;21.50;99.90
16441;DHT22;8330;-33.858;151.184;2022-09-09T05:46:45;21.60;99.90
16441;DHT22;8330;-33.858;151.184;2022-09-09T05:49:15;21.40;99.90
16441;DHT22;8330;-33.858;151.184;2022-09-09T05:51:46;21.30;99.90
16441;DHT22;8330;-33.858;151.184;2022-09-09T05:54:18;21.10;99.90
16441;DHT22;8330;-33.858;151.184;2022-09-09T05:56:49;21.10;99.90
16441;DHT22;8330;-33.858;151.184;2022-09-09T05:59:21;21.00;99.90
16441;DHT22;8330;-33.858;151.184;2022-09-09T06:01:54;20.80;99.90
16441;DHT22;8330;-33.858;151.184;2022-09-09T06:04:25;20.80;99.90
16441;DHT22;8330;-33.858;151.184;2022-09-09T06:06:58;20.70;99.90
16441;DHT22;8330;-33.858;151.184;2022-09-09T06:09:28;20.60;99.90
16441;DHT22;8330;-33.858;151.184;2022-09-09T06:11:59;20.60;99.90
16441;DHT22;8330;-33.858;151.184;2022-09-09T06:14:30;20.60;99.90
16441;DHT22;8330;-33.858;151.184;2022-09-09T06:17:03;20.60;99.90
16441;DHT22;8330;-33.858;151.184;2022-09-09T06:19:35;20.60;99.90
16441;DHT22;8330;-33.858;151.184;2022-09-09T06:22:07;20.80;99.90
16441;DHT22;8330;-33.858;151.184;2022-09-09T06:24:40;21.10;99.90
16441;DHT22;8330;-33.858;151.184;2022-09-09T06:27:13;21.40;99.90
16441;DHT22;8330;-33.858;151.184;2022-09-09T06:29:47;21.50;99.90
16441;DHT22;8330;-33.858;151.184;2022-09-09T06:32:19;21.70;99.90
16441;DHT22;8330;-33.858;151.184;2022-09-09T06:34:50;21.70;99.90
16441;DHT22;8330;-33.858;151.184;2022-09-09T06:37:21;21.70;99.90
16441;DHT22;8330;-33.858;151.184;2022-09-09T06:39:54;21.50;99.90
16441;DHT22;8330;-33.858;151.184;2022-09-09T06:42:25;21.50;99.90
16441;DHT22;8330;-33.858;151.184;2022-09-09T06:44:56;21.40;99.90
16441;DHT22;8330;-33.858;151.184;2022-09-09T06:47:29;21.60;99.90
16441;DHT22;8330;-33.858;151.184;2022-09-09T06:50:01;21.90;99.90
16441;DHT22;8330;-33.858;151.184;2022-09-09T06:52:33;22.30;99.90
16441;DHT22;8330;-33.858;151.184;2022-09-09T06:55:04;22.60;99.90
16441;DHT22;8330;-33.858;151.184;2022-09-09T06:57:34;22.70;99.90
16441;DHT22;8330;-33.858;151.184;2022-09-09T07:00:06;22.70;99.90
16441;DHT22;8330;-33.858;151.184;2022-09-09T07:02:39;22.50;99.90
16441;DHT22;8330;-33.858;151.184;2022-09-09T07:05:12;22.20;99.90
16441;DHT22;8330;-33.858;151.184;2022-09-09T07:07:43;22.00;99.90
16441;DHT22;8330;-33.858;151.184;2022-09-09T07:10:14;21.70;99.90
16441;DHT22;8330;-33.858;151.184;2022-09-09T07:12:45;21.40;99.90
16441;DHT22;8330;-33.858;151.184;2022-09-09T07:15:20;21.30;99.90
16441;DHT22;8330;-33.858;151.184;2022-09-09T07:17:56;21.10;99.90
16441;DHT22;8330;-33.858;151.184;2022-09-09T07:20:31;20.90;99.90
16441;DHT22;8330;-33.858;151.184;2022-09-09T07:23:02;20.70;99.90
16441;DHT22;8330;-33.858;151.184;2022-09-09T07:25:33;20.50;99.90
16441;DHT22;8330;-33.858;151.184;2022-09-09T07:28:04;20.40;99.90
16441;DHT22;8330;-33.858;151.184;2022-09-09T07:30:36;20.30;99.90
16441;DHT22;8330;-33.858;151.184;2022-09-09T07:33:09;20.20;99.90
16441;DHT22;8330;-33.858;151.184;2022-09-09T07:35:40;20.10;99.90
16441;DHT22;8330;-33.858;151.184;2022-09-09T07:38:11;20.00;99.90
16441;DHT22;8330;-33.858;151.184;2022-09-09T07:40:42;19.90;99.90
16441;DHT22;8330;-33.858;151.184;2022-09-09T07:43:13;19.80;99.90
16441;DHT22;8330;-33.858;151.184;2022-09-09T07:45:46;19.70;99.90
16441;DHT22;8330;-33.858;151.184;2022-09-09T07:48:19;19.60;99.90
16441;DHT22;8330;-33.858;151.184;2022-09-09T07:50:50;19.50;99.90
16441;DHT22;8330;-33.858;151.184;2022-09-09T07:53:21;19.50;99.90
16441;DHT22;8330;-33.858;151.184;2022-09-09T07:55:51;19.50;99.90
16441;DHT22;8330;-33.858;151.184;2022-09-09T07:58:23;19.30;99.90
16441;DHT22;8330;-33.858;151.184;2022-09-09T08:00:54;19.30;99.90
16441;DHT22;8330;-33.858;151.184;2022-09-09T08:03:27;19.30;99.90
16441;DHT22;8330;-33.858;151.184;2022-09-09T08:06:02;19.30;99.90
16441;DHT22;8330;-33.858;151.184;2022-09-09T08:08:35;19.20;99.90
16441;DHT22;8330;-33.858;151.184;2022-09-09T08:11:07;19.20;99.90
16441;DHT22;8330;-33.858;151.184;2022-09-09T08:13:40;19.10;99.90
16441;DHT22;8330;-33.858;151.184;2022-09-09T08:16:12;19.10;99.90
16441;DHT22;8330;-33.858;151.184;2022-09-09T08:18:45;19.10;99.90
16441;DHT22;8330;-33.858;151.184;2022-09-09T08:21:18;19.00;99.90
16441;DHT22;8330;-33.858;151.184;2022-09-09T08:23:51;19.00;99.90
16441;DHT22;8330;-33.858;151.184;2022-09-09T08:26:24;19.00;99.90
16441;DHT22;8330;-33.858;151.184;2022-09-09T08:28:57;19.00;99.90
16441;DHT22;8330;-33.858;151.184;2022-09-09T08:31:32;18.90;99.90
16441;DHT22;8330;-33.858;151.184;2022-09-09T08:34:06;18.90;99.90
16441;DHT22;8330;-33.858;151.184;2022-09-09T08:36:39;18.80;99.90
16441;DHT22;8330;-33.858;151.184;2022-09-09T08:39:11;18.80;99.90
16441;DHT22;8330;-33.858;151.184;2022-09-09T08:44:54;18.70;99.90
16441;DHT22;8330;-33.858;151.184;2022-09-09T08:47:37;18.70;99.90
16441;DHT22;8330;-33.858;151.184;2022-09-09T08:50:20;18.70;99.90
16441;DHT22;8330;-33.858;151.184;2022-09-09T08:52:57;18.70;99.90
16441;DHT22;8330;-33.858;151.184;2022-09-09T08:55:38;18.60;99.90
16441;DHT22;8330;-33.858;151.184;2022-09-09T08:58:15;18.60;99.90
16441;DHT22;8330;-33.858;151.184;2022-09-09T09:00:59;18.60;99.90
16441;DHT22;8330;-33.858;151.184;2022-09-09T09:03:38;18.50;99.90
16441;DHT22;8330;-33.858;151.184;2022-09-09T09:06:29;18.50;99.90
16441;DHT22;8330;-33.858;151.184;2022-09-09T09:09:08;18.50;99.90
16441;DHT22;8330;-33.858;151.184;2022-09-09T09:11:47;18.40;99.90
16441;DHT22;8330;-33.858;151.184;2022-09-09T09:14:20;18.40;99.90
16441;DHT22;8330;-33.858;151.184;2022-09-09T09:16:54;18.40;99.90
16441;DHT22;8330;-33.858;151.184;2022-09-09T09:19:27;18.40;99.90
16441;DHT22;8330;-33.858;151.184;2022-09-09T09:22:04;18.40;99.90
16441;DHT22;8330;-33.858;151.184;2022-09-09T09:24:45;18.30;99.90
16441;DHT22;8330;-33.858;151.184;2022-09-09T09:27:28;18.30;99.90
16441;DHT22;8330;-33.858;151.184;2022-09-09T09:30:02;18.30;99.90
16441;DHT22;8330;-33.858;151.184;2022-09-09T09:32:37;18.30;99.90
16441;DHT22;8330;-33.858;151.184;2022-09-09T09:35:12;18.30;99.90
16441;DHT22;8330;-33.858;151.184;2022-09-09T09:37:46;18.30;99.90
16441;DHT22;8330;-33.858;151.184;2022-09-09T09:40:19;18.30;99.90
16441;DHT22;8330;-33.858;151.184;2022-09-09T09:42:54;18.20;99.90
16441;DHT22;8330;-33.858;151.184;2022-09-09T09:45:31;18.20;99.90
16441;DHT22;8330;-33.858;151.184;2022-09-09T09:48:03;18.20;99.90
16441;DHT22;8330;-33.858;151.184;2022-09-09T09:50:35;18.20;99.90
16441;DHT22;8330;-33.858;151.184;2022-09-09T09:53:20;18.20;99.90
16441;DHT22;8330;-33.858;151.184;2022-09-09T09:55:56;18.20;99.90
16441;DHT22;8330;-33.858;151.184;2022-09-09T09:58:30;18.20;99.90
16441;DHT22;8330;-33.858;151.184;2022-09-09T10:01:02;18.10;99.90
16441;DHT22;8330;-33.858;151.184;2022-09-09T10:03:35;18.10;99.90
16441;DHT22;8330;-33.858;151.184;2022-09-09T10:06:08;18.10;99.90
16441;DHT22;8330;-33.858;151.184;2022-09-09T10:08:48;18.00;99.90
16441;DHT22;8330;-33.858;151.184;2022-09-09T10:11:28;18.00;99.90
16441;DHT22;8330;-33.858;151.184;2022-09-09T10:14:07;18.00;99.90
16441;DHT22;8330;-33.858;151.184;2022-09-09T10:16:58;18.00;99.90
16441;DHT22;8330;-33.858;151.184;2022-09-09T10:19:34;17.90;99.90
16441;DHT22;8330;-33.858;151.184;2022-09-09T10:22:12;17.90;99.90
16441;DHT22;8330;-33.858;151.184;2022-09-09T10:25:14;17.90;99.90
16441;DHT22;8330;-33.858;151.184;2022-09-09T10:28:03;17.90;99.90
16441;DHT22;8330;-33.858;151.184;2022-09-09T10:30:46;17.90;99.90
16441;DHT22;8330;-33.858;151.184;2022-09-09T10:33:23;17.90;99.90
16441;DHT22;8330;-33.858;151.184;2022-09-09T10:36:04;17.80;99.90
16441;DHT22;8330;-33.858;151.184;2022-09-09T10:38:41;17.80;99.90
16441;DHT22;8330;-33.858;151.184;2022-09-09T10:41:18;17.80;99.90
16441;DHT22;8330;-33.858;151.184;2022-09-09T10:44:10;17.80;99.90
16441;DHT22;8330;-33.858;151.184;2022-09-09T10:47:01;17.80;99.90
16441;DHT22;8330;-33.858;151.184;2022-09-09T10:49:59;17.70;99.90
16441;DHT22;8330;-33.858;151.184;2022-09-09T10:52:40;17.80;99.90
16441;DHT22;8330;-33.858;151.184;2022-09-09T10:55:17;17.80;99.90
16441;DHT22;8330;-33.858;151.184;2022-09-09T10:57:52;17.80;99.90
16441;DHT22;8330;-33.858;151.184;2022-09-09T11:00:24;17.80;99.90
16441;DHT22;8330;-33.858;151.184;2022-09-09T11:02:58;17.80;99.90
16441;DHT22;8330;-33.858;151.184;2022-09-09T11:05:34;17.80;99.90
16441;DHT22;8330;-33.858;151.184;2022-09-09T11:08:12;17.70;99.90
16441;DHT22;8330;-33.858;151.184;2022-09-09T11:10:46;17.80;99.90
16441;DHT22;8330;-33.858;151.184;2022-09-09T11:13:24;17.70;99.90
16441;DHT22;8330;-33.858;151.184;2022-09-09T11:16:01;17.70;99.90
16441;DHT22;8330;-33.858;151.184;2022-09-09T11:18:38;17.70;99.90
16441;DHT22;8330;-33.858;151.184;2022-09-09T11:21:17;17.80;99.90
16441;DHT22;8330;-33.858;151.184;2022-09-09T11:23:52;17.80;99.90
16441;DHT22;8330;-33.858;151.184;2022-09-09T11:26:31;17.80;99.90
16441;DHT22;8330;-33.858;151.184;2022-09-09T11:32:16;17.90;99.90
16441;DHT22;8330;-33.858;151.184;2022-09-09T11:34:56;17.80;99.90
16441;DHT22;8330;-33.858;151.184;2022-09-09T11:40:55;17.80;99.90
16441;DHT22;8330;-33.858;151.184;2022-09-09T11:43:30;17.80;99.90
16441;DHT22;8330;-33.858;151.184;2022-09-09T11:46:04;17.80;99.90
16441;DHT22;8330;-33.858;151.184;2022-09-09T11:48:37;17.80;99.90
16441;DHT22;8330;-33.858;151.184;2022-09-09T11:51:11;17.80;99.90
16441;DHT22;8330;-33.858;151.184;2022-09-09T11:53:51;17.90;99.90
16441;DHT22;8330;-33.858;151.184;2022-09-09T11:56:27;17.80;99.90
16441;DHT22;8330;-33.858;151.184;2022-09-09T11:59:19;17.90;99.90
16441;DHT22;8330;-33.858;151.184;2022-09-09T12:02:02;17.80;99.90
16441;DHT22;8330;-33.858;151.184;2022-09-09T12:04:55;17.90;99.90
16441;DHT22;8330;-33.858;151.184;2022-09-09T12:07:33;17.90;99.90
16441;DHT22;8330;-33.858;151.184;2022-09-09T12:10:23;17.90;99.90
16441;DHT22;8330;-33.858;151.184;2022-09-09T12:13:07;17.90;99.90
16441;DHT22;8330;-33.858;151.184;2022-09-09T12:15:48;17.90;99.90
16441;DHT22;8330;-33.858;151.184;2022-09-09T12:18:34;17.90;99.90
16441;DHT22;8330;-33.858;151.184;2022-09-09T12:21:11;17.90;99.90
16441;DHT22;8330;-33.858;151.184;2022-09-09T12:23:48;17.90;99.90
16441;DHT22;8330;-33.858;151.184;2022-09-09T12:26:30;17.90;99.90
16441;DHT22;8330;-33.858;151.184;2022-09-09T12:29:16;17.90;99.90
16441;DHT22;8330;-33.858;151.184;2022-09-09T12:32:04;17.90;99.90
16441;DHT22;8330;-33.858;151.184;2022-09-09T12:34:47;17.90;99.90
16441;DHT22;8330;-33.858;151.184;2022-09-09T12:37:29;17.90;99.90
16441;DHT22;8330;-33.858;151.184;2022-09-09T12:40:03;17.90;99.90
16441;DHT22;8330;-33.858;151.184;2022-09-09T12:42:41;17.90;99.90
16441;DHT22;8330;-33.858;151.184;2022-09-09T12:45:25;17.80;99.90
16441;DHT22;8330;-33.858;151.184;2022-09-09T12:48:03;17.80;99.90
16441;DHT22;8330;-33.858;151.184;2022-09-09T12:50:43;17.80;99.90
16441;DHT22;8330;-33.858;151.184;2022-09-09T12:53:21;17.80;99.90
16441;DHT22;8330;-33.858;151.184;2022-09-09T12:55:59;17.80;99.90
16441;DHT22;8330;-33.858;151.184;2022-09-09T12:58:37;17.80;99.90
16441;DHT22;8330;-33.858;151.184;2022-09-09T13:01:22;17.80;99.90
16441;DHT22;8330;-33.858;151.184;2022-09-09T13:03:53;17.80;99.90
16441;DHT22;8330;-33.858;151.184;2022-09-09T13:06:38;17.80;99.90
16441;DHT22;8330;-33.858;151.184;2022-09-09T13:09:10;17.80;99.90
16441;DHT22;8330;-33.858;151.184;2022-09-09T13:11:42;17.90;99.90
16441;DHT22;8330;-33.858;151.184;2022-09-09T13:14:17;17.90;99.90
16441;DHT22;8330;-33.858;151.184;2022-09-09T13:16:57;17.90;99.90
16441;DHT22;8330;-33.858;151.184;2022-09-09T13:19:37;17.90;99.90
16441;DHT22;8330;-33.858;151.184;2022-09-09T13:22:29;17.90;99.90
16441;DHT22;8330;-33.858;151.184;2022-09-09T13:25:24;17.80;99.90
16441;DHT22;8330;-33.858;151.184;2022-09-09T13:27:58;17.80;99.90
16441;DHT22;8330;-33.858;151.184;2022-09-09T13:31:00;17.80;99.90
16441;DHT22;8330;-33.858;151.184;2022-09-09T13:33:35;17.80;99.90
16441;DHT22;8330;-33.858;151.184;2022-09-09T13:36:08;17.80;99.90
16441;DHT22;8330;-33.858;151.184;2022-09-09T13:38:54;17.80;99.90
16441;DHT22;8330;-33.858;151.184;2022-09-09T13:41:29;17.80;99.90
16441;DHT22;8330;-33.858;151.184;2022-09-09T13:44:02;17.70;99.90
16441;DHT22;8330;-33.858;151.184;2022-09-09T13:46:36;17.70;99.90
16441;DHT22;8330;-33.858;151.184;2022-09-09T13:49:21;17.70;99.90
16441;DHT22;8330;-33.858;151.184;2022-09-09T13:52:02;17.60;99.90
16441;DHT22;8330;-33.858;151.184;2022-09-09T13:54:35;17.60;99.90
16441;DHT22;8330;-33.858;151.184;2022-09-09T13:57:13;17.60;99.90
16441;DHT22;8330;-33.858;151.184;2022-09-09T13:59:45;17.60;99.90
16441;DHT22;8330;-33.858;151.184;2022-09-09T14:02:16;17.50;99.90
16441;DHT22;8330;-33.858;151.184;2022-09-09T14:04:49;17.60;99.90
16441;DHT22;8330;-33.858;151.184;2022-09-09T14:07:23;17.50;99.90
16441;DHT22;8330;-33.858;151.184;2022-09-09T14:09:55;17.60;99.90
16441;DHT22;8330;-33.858;151.184;2022-09-09T14:12:28;17.60;99.90
16441;DHT22;8330;-33.858;151.184;2022-09-09T14:14:58;17.50;99.90
16441;DHT22;8330;-33.858;151.184;2022-09-09T14:17:29;17.50;99.90
16441;DHT22;8330;-33.858;151.184;2022-09-09T14:20:00;17.50;99.90
16441;DHT22;8330;-33.858;151.184;2022-09-09T14:22:31;17.50;99.90
16441;DHT22;8330;-33.858;151.184;2022-09-09T14:25:04;17.40;99.90
16441;DHT22;8330;-33.858;151.184;2022-09-09T14:27:35;17.40;99.90
16441;DHT22;8330;-33.858;151.184;2022-09-09T14:30:07;17.40;99.90
16441;DHT22;8330;-33.858;151.184;2022-09-09T14:32:38;17.30;99.90
16441;DHT22;8330;-33.858;151.184;2022-09-09T14:35:09;17.30;99.90
16441;DHT22;8330;-33.858;151.184;2022-09-09T14:37:42;17.30;99.90
16441;DHT22;8330;-33.858;151.184;2022-09-09T14:40:15;17.30;99.90
16441;DHT22;8330;-33.858;151.184;2022-09-09T14:42:45;17.20;99.90
16441;DHT22;8330;-33.858;151.184;2022-09-09T14:45:16;17.20;99.90
16441;DHT22;8330;-33.858;151.184;2022-09-09T14:47:47;17.20;99.90
16441;DHT22;8330;-33.858;151.184;2022-09-09T14:50:20;17.20;99.90
16441;DHT22;8330;-33.858;151.184;2022-09-09T14:52:50;17.20;99.90
16441;DHT22;8330;-33.858;151.184;2022-09-09T14:55:23;17.00;99.90
16441;DHT22;8330;-33.858;151.184;2022-09-09T14:57:56;17.10;99.90
16441;DHT22;8330;-33.858;151.184;2022-09-09T15:00:29;17.10;99.90
16441;DHT22;8330;-33.858;151.184;2022-09-09T15:03:00;17.10;99.90
16441;DHT22;8330;-33.858;151.184;2022-09-09T15:05:31;17.10;99.90
16441;DHT22;8330;-33.858;151.184;2022-09-09T15:08:02;17.10;99.90
16441;DHT22;8330;-33.858;151.184;2022-09-09T15:10:34;17.10;99.90
16441;DHT22;8330;-33.858;151.184;2022-09-09T15:13:06;17.10;99.90
16441;DHT22;8330;-33.858;151.184;2022-09-09T15:15:38;17.10;99.90
16441;DHT22;8330;-33.858;151.184;2022-09-09T15:18:09;17.10;99.90
16441;DHT22;8330;-33.858;151.184;2022-09-09T15:20:45;17.10;99.90
16441;DHT22;8330;-33.858;151.184;2022-09-09T15:23:16;17.10;99.90
16441;DHT22;8330;-33.858;151.184;2022-09-09T15:25:55;17.10;99.90
16441;DHT22;8330;-33.858;151.184;2022-09-09T15:28:26;17.00;99.90
16441;DHT22;8330;-33.858;151.184;2022-09-09T15:30:57;16.90;99.90
16441;DHT22;8330;-33.858;151.184;2022-09-09T15:33:29;17.00;99.90
16441;DHT22;8330;-33.858;151.184;2022-09-09T15:36:00;17.00;99.90
16441;DHT22;8330;-33.858;151.184;2022-09-09T15:38:32;16.90;99.90
16441;DHT22;8330;-33.858;151.184;2022-09-09T15:41:06;16.90;99.90
16441;DHT22;8330;-33.858;151.184;2022-09-09T15:43:36;16.90;99.90
16441;DHT22;8330;-33.858;151.184;2022-09-09T15:46:24;16.80;99.90
16441;DHT22;8330;-33.858;151.184;2022-09-09T15:48:57;16.80;99.90
16441;DHT22;8330;-33.858;151.184;2022-09-09T15:51:28;16.80;99.90
16441;DHT22;8330;-33.858;151.184;2022-09-09T15:53:59;16.80;99.90
16441;DHT22;8330;-33.858;151.184;2022-09-09T15:56:32;16.70;99.90
16441;DHT22;8330;-33.858;151.184;2022-09-09T15:59:04;16.70;99.90
16441;DHT22;8330;-33.858;151.184;2022-09-09T16:01:35;16.70;99.90